ADDS METAR Data INFO
IDs: Format: Raw Decoded Include TAF

Data at: 2221 UTC 22 Aug 2017

KCYS 222153Z 18016G22KT 10SM CLR 24/12 A3029 RMK AO2 SLP181 T02440117
KCYS 222053Z 18014G22KT 10SM CLR 24/12 A3031 RMK AO2 SLP186 T02390122 58016
KCYS 221953Z 18011G17KT 10SM CLR 23/13 A3033 RMK AO2 SLP195 T02280128
KCYS 221853Z 17013KT 10SM FEW023 21/12 A3035 RMK AO2 SLP202 T02110122
KCYS 221823Z 17013KT 10SM SCT022 20/12 A3035 RMK AO2 T02000122
KCYS 221753Z 19015G22KT 10SM BKN019 19/12 A3036 RMK AO2 SLP210 T01890122 10200 20139 58002
KCYS 221653Z 18014KT 10SM BKN015 OVC020 18/13 A3037 RMK AO2 SLP217 T01830128
KCYS 221626Z 18013KT 10SM SCT012 OVC021 17/13 A3038 RMK AO2 T01720128
KCYS 221553Z 17013G18KT 10SM OVC012 16/13 A3038 RMK AO2 SLP221 T01610128
KCYS 221537Z 18012KT 10SM OVC011 16/13 A3038 RMK AO2 CIG 008V015 T01560128
KCYS 221453Z 18013KT 10SM OVC008 16/13 A3037 RMK AO2 SLP216 T01560128 53005
KCYS 221353Z 18012KT 9SM OVC008 15/12 A3036 RMK AO2 SLP211 T01500122
KCYS 221253Z 18009KT 10SM BKN008 OVC014 14/11 A3035 RMK AO2 SLP203 T01440111
KCYS 221157Z 20007KT 10SM BKN008 OVC016 14/09 A3035 RMK AO2 T01390094
KCYS 221153Z 19007KT 10SM SCT008 OVC016 14/09 A3035 RMK AO2 SLP197 T01390094 10156 20106 55002
KCYS 221151Z 18008KT 10SM SCT008 BKN016 OVC021 14/09 A3035 RMK AO2
KCYS 221146Z AUTO 18008KT 10SM BKN014 BKN021 OVC029 14/09 A3035 RMK AO2 T01390089
KCYS 221129Z AUTO 17008KT 10SM SCT010 BKN017 OVC030 14/09 A3035 RMK AO2 T01390089
KCYS 221110Z AUTO 19007KT 10SM BKN009 OVC014 14/09 A3035 RMK AO2 CIG 009V013 T01390089
KCYS 221053Z AUTO 17007KT 10SM BKN014 OVC028 14/09 A3034 RMK AO2 SLP195 T01390094
KCYS 221014Z AUTO 19004KT 10SM FEW017 BKN027 12/08 A3035 RMK AO2 T01220078
KCYS 220953Z AUTO 23006KT 10SM CLR 11/07 A3036 RMK AO2 SLP204 T01110072
KCYS 220853Z AUTO 19005KT 10SM CLR 13/08 A3036 RMK AO2 SLP203 T01280078 53004
KCYS 220753Z AUTO 13003KT 10SM CLR 14/07 A3035 RMK AO2 SLP197 T01390067
KCYS 220653Z AUTO 12005KT 10SM CLR 14/07 A3034 RMK AO2 SLP200 T01390067 402610122
KCYS 220553Z AUTO 11003KT 10SM CLR 16/06 A3034 RMK AO2 SLP200 T01560061 10244 20150 51010
KCYS 220453Z AUTO 10004KT 10SM CLR 15/06 A3033 RMK AO2 SLP189 T01500061
KCYS 220353Z AUTO 09006KT 10SM CLR 16/07 A3033 RMK AO2 SLP187 T01610067
KCYS 220253Z 10006KT 10SM SCT110 17/08 A3031 RMK AO2 SLP181 T01670078 53019
KCYS 220153Z 11008KT 10SM CLR 19/08 A3028 RMK AO2 SLP172 T01940078
KCYS 220053Z 08009KT 10SM CLR 22/08 A3026 RMK AO2 SLP165 T02220083
KCYS 212353Z 04013KT 10SM CLR 24/03 A3024 RMK AO2 SLP161 T02440033 10261 20211 55000
KCYS 212253Z 07011G18KT 10SM CLR 25/03 A3024 RMK AO2 SLP160 T02500033
KCYS 212153Z 05009G18KT 10SM CLR 26/03 A3024 RMK AO2 SLP155 T02560033
KCYS 212053Z 01011G20KT 10SM CLR 25/03 A3024 RMK AO2 SLP159 T02500028 50005
KCYS 211953Z 03016G24KT 10SM CLR 24/02 A3024 RMK AO2 PK WND 03026/1910 SLP160 T02440022
KCYS 211853Z 02019G26KT 10SM CLR 23/02 A3023 RMK AO2 PK WND 02026/1853 SLP156 T02280017
KCYS 211753Z 02014G21KT 10SM CLR 21/01 A3022 RMK AO2 SLP151 T02110011 10250 20122 53010
KCYS 211653Z 02016G22KT 10SM CLR 24/04 A3021 RMK AO2 SLP142 T02440044
KCYS 211553Z 01017G22KT 10SM CLR 23/04 A3020 RMK AO2 SLP140 T02330039
KCYS 211453Z 34009KT 10SM CLR 23/05 A3019 RMK AO2 SLP132 T02280050 53009
KCYS 211353Z 30008KT 10SM CLR 19/05 A3017 RMK AO2 SLP129 T01940050
KCYS 211253Z 32007KT 10SM CLR 16/04 A3016 RMK AO2 SLP126 T01610039
KCYS 211153Z 00000KT 10SM CLR 13/05 A3015 RMK AO2 SLP128 T01280050 10183 20128 58001
KCYS 211053Z AUTO 26007KT 10SM CLR 13/05 A3015 RMK AO2 SLP126 T01280050